Huntersville, Minnesota
Current Conditions -  °F | °C
As of 12:44 AM on Monday 24 Nov 2014 (Local Time) from KPKD Reporting Station
Overcast Overcast  
Wind Chill:   Ceiling: 1000
Heat Index: 19°   Visibility: 10mi
Dew Point: 16°   Wind: 17mph
Humidity: 88%   Direction: 320°NW
Pressure: 29.42"   Gusts: NA
Location:  46.7591°N, 94.9748°W
Report Text: KPKD 240644Z AUTO 32015KT 10SM OVC010 M07/M09 A2942 RMK AO2 T10721089
Loading
Personal Weather Stations






























Interactive Weather Map New forecast layout! Learn more

10-Day Weather Forecast

Advertisements
Track Severe Weather on mobile